Česky Dansk Deutsch English Español Suomi Français Magyar Italiano Nederlands norsk Polski Português svenska Türkçe

 

Het Weer

Luxeuil (Frankrijk)

18:30, 12 agosto 2016 (GMT)

NWNNE
WE
SWSSE
Home            
Luxeuil Belfort Besancon Colmar Les Eplatures Bale-Mulhouse Nancy / Ochey Neuchatel Nancy / Essey Grenchen Dole Tavaux Dijon Payerne Lahr, CAN-AFB Strasbourg Toul / Rosieres Bern / Belp Metz-Nancy-Lorraine Chatillon-Sur-Seine Lausanne St-Dizier Metz / Frescaty Donaueschingen / Villingen

Om een weerknop op uw website of weblog te plaatsen, copieer onderstaande code en plak die in uw pagina. In het eerste vakje staat HTML-code, in het tweede vakje UBB-code.


Add to Google

Details

Visibilità totale:Maggiore di 10000 m, 10 km, 32800 ft, 6.2 miles
Clouds:CAVOC
Temperature:24°C, 75°F
Sensazione termica:26°C, 78°F
Temperatura di rugiada :12°C, 54°F
Pressione atmosferica:1026 hPa, 769.6 mmHg, 30.30 inHg, 1.013 atm
Umidità relativa:47.0 %
METAR:LFSX 121830Z AUTO 00000KT CAVOK 24/12 Q1026

Snelkoppelingen

Actuele weersinformatie van de hele wereld. Voeg locaties toe met het plus (+) symbool. Deze snelkoppelingen kunnen worden toegevoegd aan Google.

Lid van de Technetium groep

website free tracking
StatCounter NetStat W3C Validator

29-06-2022 05:09:39
astro.technetium.be money.technetium.be phote.technetium.be tafeltennistafel.technetium.be www.ligfiets.net